sensor_id;sensor_type;location;lat;lon;timestamp;P1;durP1;ratioP1;P2;durP2;ratioP2
15295;SDS011;7749;49.964;7.890;2022-10-10T00:01:30;11.20;;;9.40;;
15295;SDS011;7749;49.964;7.890;2022-10-10T00:03:59;13.93;;;10.83;;
15295;SDS011;7749;49.964;7.890;2022-10-10T00:06:27;13.37;;;11.13;;
15295;SDS011;7749;49.964;7.890;2022-10-10T00:09:00;9.63;;;8.47;;
15295;SDS011;7749;49.964;7.890;2022-10-10T00:11:28;18.27;;;12.93;;
15295;SDS011;7749;49.964;7.890;2022-10-10T00:13:56;15.57;;;11.57;;
15295;SDS011;7749;49.964;7.890;2022-10-10T00:16:39;13.15;;;10.07;;
15295;SDS011;7749;49.964;7.890;2022-10-10T00:19:07;15.17;;;11.60;;
15295;SDS011;7749;49.964;7.890;2022-10-10T00:21:34;11.03;;;7.80;;
15295;SDS011;7749;49.964;7.890;2022-10-10T00:24:02;9.17;;;6.97;;
15295;SDS011;7749;49.964;7.890;2022-10-10T00:26:30;11.17;;;7.90;;
15295;SDS011;7749;49.964;7.890;2022-10-10T00:28:58;9.00;;;7.00;;
15295;SDS011;7749;49.964;7.890;2022-10-10T00:31:25;10.40;;;7.63;;
15295;SDS011;7749;49.964;7.890;2022-10-10T00:33:53;8.13;;;7.33;;
15295;SDS011;7749;49.964;7.890;2022-10-10T00:36:20;9.00;;;6.97;;
15295;SDS011;7749;49.964;7.890;2022-10-10T00:38:48;9.80;;;8.30;;
15295;SDS011;7749;49.964;7.890;2022-10-10T00:41:16;13.97;;;9.70;;
15295;SDS011;7749;49.964;7.890;2022-10-10T00:44:03;15.73;;;11.43;;
15295;SDS011;7749;49.964;7.890;2022-10-10T00:46:33;16.87;;;11.60;;
15295;SDS011;7749;49.964;7.890;2022-10-10T00:49:02;20.20;;;12.63;;
15295;SDS011;7749;49.964;7.890;2022-10-10T00:51:32;19.93;;;11.53;;
15295;SDS011;7749;49.964;7.890;2022-10-10T00:54:01;14.30;;;9.23;;
15295;SDS011;7749;49.964;7.890;2022-10-10T00:56:34;14.60;;;8.23;;
15295;SDS011;7749;49.964;7.890;2022-10-10T00:59:09;10.10;;;6.43;;
15295;SDS011;7749;49.964;7.890;2022-10-10T01:01:38;11.97;;;8.27;;
15295;SDS011;7749;49.964;7.890;2022-10-10T01:04:27;18.50;;;11.83;;
15295;SDS011;7749;49.964;7.890;2022-10-10T01:06:59;11.60;;;8.20;;
15295;SDS011;7749;49.964;7.890;2022-10-10T01:09:29;9.73;;;6.80;;
15295;SDS011;7749;49.964;7.890;2022-10-10T01:14:46;6.57;;;5.70;;
15295;SDS011;7749;49.964;7.890;2022-10-10T01:31:19;6.87;;;4.33;;
15295;SDS011;7749;49.964;7.890;2022-10-10T01:36:37;10.10;;;4.87;;
15295;SDS011;7749;49.964;7.890;2022-10-10T01:39:13;6.90;;;4.70;;
15295;SDS011;7749;49.964;7.890;2022-10-10T01:41:50;4.87;;;4.20;;
15295;SDS011;7749;49.964;7.890;2022-10-10T01:44:30;5.53;;;4.30;;
15295;SDS011;7749;49.964;7.890;2022-10-10T01:47:01;5.43;;;4.53;;
15295;SDS011;7749;49.964;7.890;2022-10-10T01:49:29;5.83;;;4.70;;
15295;SDS011;7749;49.964;7.890;2022-10-10T02:00:23;6.60;;;5.70;;
15295;SDS011;7749;49.964;7.890;2022-10-10T02:02:53;7.97;;;5.87;;
15295;SDS011;7749;49.964;7.890;2022-10-10T02:11:09;6.67;;;5.37;;
15295;SDS011;7749;49.964;7.890;2022-10-10T02:13:40;7.17;;;5.40;;
15295;SDS011;7749;49.964;7.890;2022-10-10T02:16:23;6.27;;;5.67;;
15295;SDS011;7749;49.964;7.890;2022-10-10T02:19:07;7.13;;;5.90;;
15295;SDS011;7749;49.964;7.890;2022-10-10T02:21:38;6.60;;;6.00;;
15295;SDS011;7749;49.964;7.890;2022-10-10T02:24:07;8.53;;;5.47;;
15295;SDS011;7749;49.964;7.890;2022-10-10T02:26:38;7.87;;;5.00;;
15295;SDS011;7749;49.964;7.890;2022-10-10T02:29:10;7.27;;;6.57;;
15295;SDS011;7749;49.964;7.890;2022-10-10T02:31:53;6.90;;;5.97;;
15295;SDS011;7749;49.964;7.890;2022-10-10T02:34:29;7.57;;;5.93;;
15295;SDS011;7749;49.964;7.890;2022-10-10T02:37:03;7.07;;;6.10;;
15295;SDS011;7749;49.964;7.890;2022-10-10T02:39:38;6.90;;;5.67;;
15295;SDS011;7749;49.964;7.890;2022-10-10T02:42:13;7.87;;;5.20;;
15295;SDS011;7749;49.964;7.890;2022-10-10T02:44:42;7.00;;;5.50;;
15295;SDS011;7749;49.964;7.890;2022-10-10T02:47:14;6.93;;;5.73;;
15295;SDS011;7749;49.964;7.890;2022-10-10T02:49:42;7.10;;;5.30;;
15295;SDS011;7749;49.964;7.890;2022-10-10T02:52:10;6.13;;;5.50;;
15295;SDS011;7749;49.964;7.890;2022-10-10T02:54:41;7.13;;;5.47;;
15295;SDS011;7749;49.964;7.890;2022-10-10T02:57:08;7.67;;;6.13;;
15295;SDS011;7749;49.964;7.890;2022-10-10T02:59:37;6.37;;;5.77;;
15295;SDS011;7749;49.964;7.890;2022-10-10T03:02:04;6.63;;;5.93;;
15295;SDS011;7749;49.964;7.890;2022-10-10T03:04:33;6.50;;;5.50;;
15295;SDS011;7749;49.964;7.890;2022-10-10T03:07:02;6.87;;;6.17;;
15295;SDS011;7749;49.964;7.890;2022-10-10T03:09:30;7.77;;;6.27;;
15295;SDS011;7749;49.964;7.890;2022-10-10T03:11:57;7.33;;;6.67;;
15295;SDS011;7749;49.964;7.890;2022-10-10T03:14:25;9.43;;;8.13;;
15295;SDS011;7749;49.964;7.890;2022-10-10T03:16:53;10.53;;;8.33;;
15295;SDS011;7749;49.964;7.890;2022-10-10T03:19:20;9.53;;;8.17;;
15295;SDS011;7749;49.964;7.890;2022-10-10T03:21:48;10.00;;;8.67;;
15295;SDS011;7749;49.964;7.890;2022-10-10T03:24:15;10.00;;;7.93;;
15295;SDS011;7749;49.964;7.890;2022-10-10T03:26:43;10.40;;;8.80;;
15295;SDS011;7749;49.964;7.890;2022-10-10T03:29:11;8.00;;;6.77;;
15295;SDS011;7749;49.964;7.890;2022-10-10T03:31:38;9.53;;;7.57;;
15295;SDS011;7749;49.964;7.890;2022-10-10T03:34:08;12.20;;;9.23;;
15295;SDS011;7749;49.964;7.890;2022-10-10T03:36:39;14.57;;;10.07;;
15295;SDS011;7749;49.964;7.890;2022-10-10T03:39:07;14.20;;;10.87;;
15295;SDS011;7749;49.964;7.890;2022-10-10T03:41:35;13.07;;;7.10;;
15295;SDS011;7749;49.964;7.890;2022-10-10T03:44:02;8.97;;;6.53;;
15295;SDS011;7749;49.964;7.890;2022-10-10T03:46:30;8.80;;;7.07;;
15295;SDS011;7749;49.964;7.890;2022-10-10T03:48:58;10.43;;;6.40;;
15295;SDS011;7749;49.964;7.890;2022-10-10T03:51:25;8.03;;;7.23;;
15295;SDS011;7749;49.964;7.890;2022-10-10T03:53:53;8.83;;;7.33;;
15295;SDS011;7749;49.964;7.890;2022-10-10T03:56:21;7.40;;;6.03;;
15295;SDS011;7749;49.964;7.890;2022-10-10T03:58:50;7.33;;;6.40;;
15295;SDS011;7749;49.964;7.890;2022-10-10T04:01:18;7.00;;;6.30;;
15295;SDS011;7749;49.964;7.890;2022-10-10T04:03:45;7.50;;;5.80;;
15295;SDS011;7749;49.964;7.890;2022-10-10T04:06:18;7.50;;;6.10;;
15295;SDS011;7749;49.964;7.890;2022-10-10T04:08:45;6.03;;;5.20;;
15295;SDS011;7749;49.964;7.890;2022-10-10T04:11:13;7.07;;;5.80;;
15295;SDS011;7749;49.964;7.890;2022-10-10T04:13:41;8.07;;;5.60;;
15295;SDS011;7749;49.964;7.890;2022-10-10T04:16:08;7.40;;;5.50;;
15295;SDS011;7749;49.964;7.890;2022-10-10T04:18:36;12.13;;;5.30;;
15295;SDS011;7749;49.964;7.890;2022-10-10T04:21:06;6.13;;;5.10;;
15295;SDS011;7749;49.964;7.890;2022-10-10T04:23:34;8.30;;;5.73;;
15295;SDS011;7749;49.964;7.890;2022-10-10T04:26:02;6.50;;;5.90;;
15295;SDS011;7749;49.964;7.890;2022-10-10T04:28:29;9.33;;;6.30;;
15295;SDS011;7749;49.964;7.890;2022-10-10T04:30:57;7.97;;;6.07;;
15295;SDS011;7749;49.964;7.890;2022-10-10T04:33:25;7.87;;;5.90;;
15295;SDS011;7749;49.964;7.890;2022-10-10T04:35:55;8.07;;;6.03;;
15295;SDS011;7749;49.964;7.890;2022-10-10T04:38:23;7.17;;;6.43;;
15295;SDS011;7749;49.964;7.890;2022-10-10T04:40:50;6.73;;;6.00;;
15295;SDS011;7749;49.964;7.890;2022-10-10T04:43:18;8.17;;;5.70;;
15295;SDS011;7749;49.964;7.890;2022-10-10T04:45:46;5.73;;;5.23;;
15295;SDS011;7749;49.964;7.890;2022-10-10T04:48:13;8.50;;;5.70;;
15295;SDS011;7749;49.964;7.890;2022-10-10T04:50:41;7.67;;;6.30;;
15295;SDS011;7749;49.964;7.890;2022-10-10T04:53:09;7.50;;;6.67;;
15295;SDS011;7749;49.964;7.890;2022-10-10T04:55:37;7.83;;;6.33;;
15295;SDS011;7749;49.964;7.890;2022-10-10T04:58:07;6.03;;;5.27;;
15295;SDS011;7749;49.964;7.890;2022-10-10T05:00:36;6.70;;;5.93;;
15295;SDS011;7749;49.964;7.890;2022-10-10T05:03:05;7.30;;;6.53;;
15295;SDS011;7749;49.964;7.890;2022-10-10T05:05:33;9.47;;;7.33;;
15295;SDS011;7749;49.964;7.890;2022-10-10T05:08:01;8.37;;;7.50;;
15295;SDS011;7749;49.964;7.890;2022-10-10T05:10:28;11.03;;;7.27;;
15295;SDS011;7749;49.964;7.890;2022-10-10T05:12:56;10.80;;;7.97;;
15295;SDS011;7749;49.964;7.890;2022-10-10T05:15:24;11.13;;;8.73;;
15295;SDS011;7749;49.964;7.890;2022-10-10T05:17:52;9.83;;;7.53;;
15295;SDS011;7749;49.964;7.890;2022-10-10T05:20:20;11.50;;;7.70;;
15295;SDS011;7749;49.964;7.890;2022-10-10T05:22:48;9.87;;;7.37;;
15295;SDS011;7749;49.964;7.890;2022-10-10T05:25:16;7.13;;;6.43;;
15295;SDS011;7749;49.964;7.890;2022-10-10T05:27:46;8.97;;;6.67;;
15295;SDS011;7749;49.964;7.890;2022-10-10T05:30:15;9.03;;;6.73;;
15295;SDS011;7749;49.964;7.890;2022-10-10T05:32:43;7.53;;;6.43;;
15295;SDS011;7749;49.964;7.890;2022-10-10T05:35:10;7.93;;;6.37;;
15295;SDS011;7749;49.964;7.890;2022-10-10T05:37:38;8.03;;;6.80;;
15295;SDS011;7749;49.964;7.890;2022-10-10T05:40:06;9.83;;;6.63;;
15295;SDS011;7749;49.964;7.890;2022-10-10T05:42:34;13.33;;;8.90;;
15295;SDS011;7749;49.964;7.890;2022-10-10T05:45:07;11.33;;;8.40;;
15295;SDS011;7749;49.964;7.890;2022-10-10T05:47:35;12.43;;;7.57;;
15295;SDS011;7749;49.964;7.890;2022-10-10T05:50:03;9.30;;;7.70;;
15295;SDS011;7749;49.964;7.890;2022-10-10T05:52:31;11.40;;;7.53;;
15295;SDS011;7749;49.964;7.890;2022-10-10T05:55:01;10.40;;;7.43;;
15295;SDS011;7749;49.964;7.890;2022-10-10T05:57:29;7.67;;;6.50;;
15295;SDS011;7749;49.964;7.890;2022-10-10T05:59:56;9.57;;;6.87;;
15295;SDS011;7749;49.964;7.890;2022-10-10T06:02:24;8.33;;;6.73;;
15295;SDS011;7749;49.964;7.890;2022-10-10T06:04:51;7.63;;;6.20;;
15295;SDS011;7749;49.964;7.890;2022-10-10T06:07:19;8.80;;;6.83;;
15295;SDS011;7749;49.964;7.890;2022-10-10T06:09:47;7.60;;;6.80;;
15295;SDS011;7749;49.964;7.890;2022-10-10T06:12:14;10.57;;;7.00;;
15295;SDS011;7749;49.964;7.890;2022-10-10T06:14:42;10.43;;;8.43;;
15295;SDS011;7749;49.964;7.890;2022-10-10T06:17:09;10.30;;;7.77;;
15295;SDS011;7749;49.964;7.890;2022-10-10T06:19:37;9.47;;;7.67;;
15295;SDS011;7749;49.964;7.890;2022-10-10T06:22:07;10.07;;;8.63;;
15295;SDS011;7749;49.964;7.890;2022-10-10T06:24:38;12.90;;;8.83;;
15295;SDS011;7749;49.964;7.890;2022-10-10T06:27:06;10.43;;;8.00;;
15295;SDS011;7749;49.964;7.890;2022-10-10T06:29:33;11.00;;;8.90;;
15295;SDS011;7749;49.964;7.890;2022-10-10T06:32:01;13.03;;;8.37;;
15295;SDS011;7749;49.964;7.890;2022-10-10T06:34:32;15.13;;;8.57;;
15295;SDS011;7749;49.964;7.890;2022-10-10T06:37:01;11.97;;;7.70;;
15295;SDS011;7749;49.964;7.890;2022-10-10T06:39:29;10.13;;;7.93;;
15295;SDS011;7749;49.964;7.890;2022-10-10T06:41:57;13.53;;;9.50;;
15295;SDS011;7749;49.964;7.890;2022-10-10T06:44:25;12.77;;;8.73;;
15295;SDS011;7749;49.964;7.890;2022-10-10T06:46:52;10.43;;;8.33;;
15295;SDS011;7749;49.964;7.890;2022-10-10T06:49:20;9.17;;;7.80;;
15295;SDS011;7749;49.964;7.890;2022-10-10T06:51:48;9.00;;;7.23;;
15295;SDS011;7749;49.964;7.890;2022-10-10T06:54:15;8.93;;;6.53;;
15295;SDS011;7749;49.964;7.890;2022-10-10T06:56:43;10.67;;;7.00;;
15295;SDS011;7749;49.964;7.890;2022-10-10T06:59:12;10.17;;;7.33;;
15295;SDS011;7749;49.964;7.890;2022-10-10T07:01:39;8.73;;;6.87;;
15295;SDS011;7749;49.964;7.890;2022-10-10T07:04:10;8.73;;;6.90;;
15295;SDS011;7749;49.964;7.890;2022-10-10T07:06:38;12.87;;;6.60;;
15295;SDS011;7749;49.964;7.890;2022-10-10T07:09:09;10.87;;;6.93;;
15295;SDS011;7749;49.964;7.890;2022-10-10T07:11:37;8.17;;;7.00;;
15295;SDS011;7749;49.964;7.890;2022-10-10T07:14:05;7.90;;;6.80;;
15295;SDS011;7749;49.964;7.890;2022-10-10T07:16:34;9.87;;;6.47;;
15295;SDS011;7749;49.964;7.890;2022-10-10T07:19:02;9.37;;;6.43;;
15295;SDS011;7749;49.964;7.890;2022-10-10T07:21:30;9.47;;;6.50;;
15295;SDS011;7749;49.964;7.890;2022-10-10T07:23:57;10.23;;;7.33;;
15295;SDS011;7749;49.964;7.890;2022-10-10T07:26:26;9.10;;;6.27;;
15295;SDS011;7749;49.964;7.890;2022-10-10T07:29:04;8.43;;;6.03;;
15295;SDS011;7749;49.964;7.890;2022-10-10T07:31:33;9.03;;;6.23;;
15295;SDS011;7749;49.964;7.890;2022-10-10T07:34:00;8.27;;;6.17;;
15295;SDS011;7749;49.964;7.890;2022-10-10T07:36:28;11.13;;;5.90;;
15295;SDS011;7749;49.964;7.890;2022-10-10T07:38:58;8.70;;;6.00;;
15295;SDS011;7749;49.964;7.890;2022-10-10T07:41:28;6.60;;;5.87;;
15295;SDS011;7749;49.964;7.890;2022-10-10T07:43:56;10.50;;;6.13;;
15295;SDS011;7749;49.964;7.890;2022-10-10T07:46:23;8.67;;;6.20;;
15295;SDS011;7749;49.964;7.890;2022-10-10T07:48:51;9.67;;;6.00;;
15295;SDS011;7749;49.964;7.890;2022-10-10T07:51:18;6.80;;;5.77;;
15295;SDS011;7749;49.964;7.890;2022-10-10T07:53:46;8.40;;;5.63;;
15295;SDS011;7749;49.964;7.890;2022-10-10T07:56:14;10.03;;;6.50;;
15295;SDS011;7749;49.964;7.890;2022-10-10T07:58:41;9.87;;;6.00;;
15295;SDS011;7749;49.964;7.890;2022-10-10T08:01:11;7.20;;;6.23;;
15295;SDS011;7749;49.964;7.890;2022-10-10T08:03:39;7.93;;;5.87;;
15295;SDS011;7749;49.964;7.890;2022-10-10T08:06:09;11.17;;;5.87;;
15295;SDS011;7749;49.964;7.890;2022-10-10T08:08:39;9.93;;;5.80;;
15295;SDS011;7749;49.964;7.890;2022-10-10T08:11:17;8.10;;;5.83;;
15295;SDS011;7749;49.964;7.890;2022-10-10T08:13:49;6.97;;;5.70;;
15295;SDS011;7749;49.964;7.890;2022-10-10T08:16:17;8.10;;;5.30;;
15295;SDS011;7749;49.964;7.890;2022-10-10T08:18:45;7.60;;;5.70;;
15295;SDS011;7749;49.964;7.890;2022-10-10T08:21:13;6.80;;;5.63;;
15295;SDS011;7749;49.964;7.890;2022-10-10T08:23:46;9.67;;;5.57;;
15295;SDS011;7749;49.964;7.890;2022-10-10T08:26:14;6.57;;;5.17;;
15295;SDS011;7749;49.964;7.890;2022-10-10T08:28:45;6.33;;;5.70;;
15295;SDS011;7749;49.964;7.890;2022-10-10T08:31:16;9.53;;;5.60;;
15295;SDS011;7749;49.964;7.890;2022-10-10T08:33:45;7.80;;;5.23;;
15295;SDS011;7749;49.964;7.890;2022-10-10T08:36:15;8.00;;;5.10;;
15295;SDS011;7749;49.964;7.890;2022-10-10T08:38:45;6.60;;;5.90;;
15295;SDS011;7749;49.964;7.890;2022-10-10T08:43:59;8.73;;;6.53;;
15295;SDS011;7749;49.964;7.890;2022-10-10T08:46:36;9.47;;;5.40;;
15295;SDS011;7749;49.964;7.890;2022-10-10T08:49:18;10.00;;;5.80;;
15295;SDS011;7749;49.964;7.890;2022-10-10T08:51:49;10.00;;;6.00;;
15295;SDS011;7749;49.964;7.890;2022-10-10T08:54:24;10.63;;;6.13;;
15295;SDS011;7749;49.964;7.890;2022-10-10T08:56:55;9.40;;;6.07;;
15295;SDS011;7749;49.964;7.890;2022-10-10T08:59:28;10.13;;;5.63;;
15295;SDS011;7749;49.964;7.890;2022-10-10T09:05:20;7.97;;;6.03;;
15295;SDS011;7749;49.964;7.890;2022-10-10T09:08:10;8.30;;;5.70;;
15295;SDS011;7749;49.964;7.890;2022-10-10T09:11:01;8.47;;;5.80;;
15295;SDS011;7749;49.964;7.890;2022-10-10T09:13:43;8.63;;;6.03;;
15295;SDS011;7749;49.964;7.890;2022-10-10T09:16:39;6.37;;;5.60;;
15295;SDS011;7749;49.964;7.890;2022-10-10T09:22:11;7.73;;;5.50;;
15295;SDS011;7749;49.964;7.890;2022-10-10T09:24:45;7.97;;;5.83;;
15295;SDS011;7749;49.964;7.890;2022-10-10T09:27:26;10.23;;;5.53;;
15295;SDS011;7749;49.964;7.890;2022-10-10T09:30:05;7.97;;;6.20;;
15295;SDS011;7749;49.964;7.890;2022-10-10T09:32:38;8.47;;;5.93;;
15295;SDS011;7749;49.964;7.890;2022-10-10T09:37:45;10.07;;;6.37;;
15295;SDS011;7749;49.964;7.890;2022-10-10T09:40:18;6.93;;;5.70;;
15295;SDS011;7749;49.964;7.890;2022-10-10T09:42:53;9.83;;;6.23;;
15295;SDS011;7749;49.964;7.890;2022-10-10T09:45:27;7.30;;;5.20;;
15295;SDS011;7749;49.964;7.890;2022-10-10T09:48:00;6.97;;;5.63;;
15295;SDS011;7749;49.964;7.890;2022-10-10T09:50:28;8.23;;;5.87;;
15295;SDS011;7749;49.964;7.890;2022-10-10T09:52:56;8.37;;;5.50;;
15295;SDS011;7749;49.964;7.890;2022-10-10T09:55:29;7.10;;;5.23;;
15295;SDS011;7749;49.964;7.890;2022-10-10T10:07:01;5.90;;;4.77;;
15295;SDS011;7749;49.964;7.890;2022-10-10T10:12:46;5.60;;;5.10;;
15295;SDS011;7749;49.964;7.890;2022-10-10T10:15:24;6.87;;;5.20;;
15295;SDS011;7749;49.964;7.890;2022-10-10T10:20:46;8.17;;;5.20;;
15295;SDS011;7749;49.964;7.890;2022-10-10T10:23:26;6.60;;;5.20;;
15295;SDS011;7749;49.964;7.890;2022-10-10T10:26:08;8.27;;;5.80;;
15295;SDS011;7749;49.964;7.890;2022-10-10T10:28:41;6.33;;;5.33;;
15295;SDS011;7749;49.964;7.890;2022-10-10T10:34:26;7.33;;;5.07;;
15295;SDS011;7749;49.964;7.890;2022-10-10T10:37:20;6.70;;;4.87;;
15295;SDS011;7749;49.964;7.890;2022-10-10T10:40:24;6.97;;;4.83;;
15295;SDS011;7749;49.964;7.890;2022-10-10T10:49:15;6.38;;;3.95;;
15295;SDS011;7749;49.964;7.890;2022-10-10T10:52:07;6.72;;;4.18;;
15295;SDS011;7749;49.964;7.890;2022-10-10T10:55:01;4.97;;;3.97;;
15295;SDS011;7749;49.964;7.890;2022-10-10T10:57:35;7.78;;;4.55;;
15295;SDS011;7749;49.964;7.890;2022-10-10T11:00:40;8.18;;;4.72;;
15295;SDS011;7749;49.964;7.890;2022-10-10T11:15:46;6.38;;;4.90;;
15295;SDS011;7749;49.964;7.890;2022-10-10T11:18:41;6.43;;;4.82;;
15295;SDS011;7749;49.964;7.890;2022-10-10T11:21:25;7.30;;;3.80;;
15295;SDS011;7749;49.964;7.890;2022-10-10T11:24:04;5.53;;;4.25;;
15295;SDS011;7749;49.964;7.890;2022-10-10T11:26:46;5.93;;;3.78;;
15295;SDS011;7749;49.964;7.890;2022-10-10T11:29:24;6.28;;;4.03;;
15295;SDS011;7749;49.964;7.890;2022-10-10T11:32:06;8.25;;;4.43;;
15295;SDS011;7749;49.964;7.890;2022-10-10T11:34:42;5.47;;;3.85;;
15295;SDS011;7749;49.964;7.890;2022-10-10T11:37:18;5.18;;;3.80;;
15295;SDS011;7749;49.964;7.890;2022-10-10T11:39:54;5.72;;;4.35;;
15295;SDS011;7749;49.964;7.890;2022-10-10T11:45:13;5.63;;;3.75;;
15295;SDS011;7749;49.964;7.890;2022-10-10T11:47:46;7.32;;;3.70;;
15295;SDS011;7749;49.964;7.890;2022-10-10T11:50:25;8.45;;;3.90;;
15295;SDS011;7749;49.964;7.890;2022-10-10T11:53:16;5.60;;;3.47;;
15295;SDS011;7749;49.964;7.890;2022-10-10T12:03:38;4.55;;;3.88;;
15295;SDS011;7749;49.964;7.890;2022-10-10T12:06:20;6.05;;;3.47;;
15295;SDS011;7749;49.964;7.890;2022-10-10T12:11:27;5.70;;;3.60;;
15295;SDS011;7749;49.964;7.890;2022-10-10T12:14:17;7.75;;;3.70;;
15295;SDS011;7749;49.964;7.890;2022-10-10T12:16:46;5.35;;;3.38;;
15295;SDS011;7749;49.964;7.890;2022-10-10T12:19:18;4.03;;;3.40;;
15295;SDS011;7749;49.964;7.890;2022-10-10T12:24:22;6.88;;;3.47;;
15295;SDS011;7749;49.964;7.890;2022-10-10T12:40:48;10.55;;;3.83;;
15295;SDS011;7749;49.964;7.890;2022-10-10T12:48:00;5.57;;;3.10;;
15295;SDS011;7749;49.964;7.890;2022-10-10T12:50:34;7.35;;;3.53;;
15295;SDS011;7749;49.964;7.890;2022-10-10T12:55:46;6.28;;;3.55;;
15295;SDS011;7749;49.964;7.890;2022-10-10T12:58:20;5.60;;;3.70;;
15295;SDS011;7749;49.964;7.890;2022-10-10T13:01:18;5.07;;;4.40;;
15295;SDS011;7749;49.964;7.890;2022-10-10T13:03:50;7.00;;;4.25;;
15295;SDS011;7749;49.964;7.890;2022-10-10T13:06:32;5.40;;;3.95;;
15295;SDS011;7749;49.964;7.890;2022-10-10T13:09:09;9.57;;;4.35;;
15295;SDS011;7749;49.964;7.890;2022-10-10T13:14:20;8.40;;;4.20;;
15295;SDS011;7749;49.964;7.890;2022-10-10T13:16:48;5.53;;;4.50;;
15295;SDS011;7749;49.964;7.890;2022-10-10T13:19:22;8.55;;;4.65;;
15295;SDS011;7749;49.964;7.890;2022-10-10T13:21:51;5.43;;;4.22;;
15295;SDS011;7749;49.964;7.890;2022-10-10T13:24:26;8.73;;;3.92;;
15295;SDS011;7749;49.964;7.890;2022-10-10T13:26:56;8.32;;;4.85;;
15295;SDS011;7749;49.964;7.890;2022-10-10T13:29:26;4.85;;;4.10;;
15295;SDS011;7749;49.964;7.890;2022-10-10T13:32:01;9.43;;;4.55;;
15295;SDS011;7749;49.964;7.890;2022-10-10T13:34:32;8.00;;;4.43;;
15295;SDS011;7749;49.964;7.890;2022-10-10T13:37:05;8.43;;;4.47;;
15295;SDS011;7749;49.964;7.890;2022-10-10T13:39:35;6.13;;;4.30;;
15295;SDS011;7749;49.964;7.890;2022-10-10T13:42:03;5.95;;;4.40;;
15295;SDS011;7749;49.964;7.890;2022-10-10T13:44:48;10.30;;;4.45;;
15295;SDS011;7749;49.964;7.890;2022-10-10T13:47:36;7.43;;;4.88;;
15295;SDS011;7749;49.964;7.890;2022-10-10T13:58:25;8.73;;;3.97;;
15295;SDS011;7749;49.964;7.890;2022-10-10T14:00:54;8.77;;;3.78;;
15295;SDS011;7749;49.964;7.890;2022-10-10T14:03:23;7.05;;;3.40;;
15295;SDS011;7749;49.964;7.890;2022-10-10T14:05:52;5.53;;;3.40;;
15295;SDS011;7749;49.964;7.890;2022-10-10T14:08:23;6.88;;;3.40;;
15295;SDS011;7749;49.964;7.890;2022-10-10T14:10:55;7.05;;;3.50;;
15295;SDS011;7749;49.964;7.890;2022-10-10T14:13:28;6.47;;;3.35;;
15295;SDS011;7749;49.964;7.890;2022-10-10T14:16:10;6.60;;;3.50;;
15295;SDS011;7749;49.964;7.890;2022-10-10T14:18:49;7.15;;;3.60;;
15295;SDS011;7749;49.964;7.890;2022-10-10T14:21:18;5.40;;;3.53;;
15295;SDS011;7749;49.964;7.890;2022-10-10T14:23:46;5.65;;;3.15;;
15295;SDS011;7749;49.964;7.890;2022-10-10T14:26:15;8.80;;;3.40;;
15295;SDS011;7749;49.964;7.890;2022-10-10T14:28:45;7.60;;;3.20;;
15295;SDS011;7749;49.964;7.890;2022-10-10T14:31:14;7.40;;;2.92;;
15295;SDS011;7749;49.964;7.890;2022-10-10T14:33:43;7.72;;;3.22;;
15295;SDS011;7749;49.964;7.890;2022-10-10T14:36:11;7.38;;;3.22;;
15295;SDS011;7749;49.964;7.890;2022-10-10T14:38:39;4.75;;;3.20;;
15295;SDS011;7749;49.964;7.890;2022-10-10T14:41:08;5.80;;;3.72;;
15295;SDS011;7749;49.964;7.890;2022-10-10T14:43:39;6.78;;;3.72;;
15295;SDS011;7749;49.964;7.890;2022-10-10T14:46:18;6.85;;;3.10;;
15295;SDS011;7749;49.964;7.890;2022-10-10T14:48:48;10.02;;;3.83;;
15295;SDS011;7749;49.964;7.890;2022-10-10T14:51:16;8.02;;;4.07;;
15295;SDS011;7749;49.964;7.890;2022-10-10T14:54:01;7.57;;;3.47;;
15295;SDS011;7749;49.964;7.890;2022-10-10T14:56:41;11.10;;;3.30;;
15295;SDS011;7749;49.964;7.890;2022-10-10T14:59:31;7.45;;;3.40;;
15295;SDS011;7749;49.964;7.890;2022-10-10T15:02:17;5.93;;;3.13;;
15295;SDS011;7749;49.964;7.890;2022-10-10T15:04:45;9.82;;;3.35;;
15295;SDS011;7749;49.964;7.890;2022-10-10T15:07:14;11.18;;;3.80;;
15295;SDS011;7749;49.964;7.890;2022-10-10T15:09:45;7.93;;;3.40;;
15295;SDS011;7749;49.964;7.890;2022-10-10T15:12:38;9.15;;;3.47;;
15295;SDS011;7749;49.964;7.890;2022-10-10T15:15:09;5.40;;;3.40;;
15295;SDS011;7749;49.964;7.890;2022-10-10T15:17:38;9.43;;;3.42;;
15295;SDS011;7749;49.964;7.890;2022-10-10T15:20:09;9.07;;;3.60;;
15295;SDS011;7749;49.964;7.890;2022-10-10T15:22:38;9.40;;;3.53;;
15295;SDS011;7749;49.964;7.890;2022-10-10T15:25:07;7.65;;;3.60;;
15295;SDS011;7749;49.964;7.890;2022-10-10T15:27:36;9.48;;;3.35;;
15295;SDS011;7749;49.964;7.890;2022-10-10T15:30:04;10.25;;;3.45;;
15295;SDS011;7749;49.964;7.890;2022-10-10T15:32:32;6.75;;;3.30;;
15295;SDS011;7749;49.964;7.890;2022-10-10T15:35:04;12.18;;;4.65;;
15295;SDS011;7749;49.964;7.890;2022-10-10T15:37:32;7.20;;;4.10;;
15295;SDS011;7749;49.964;7.890;2022-10-10T15:40:00;8.70;;;3.67;;
15295;SDS011;7749;49.964;7.890;2022-10-10T15:42:27;11.00;;;3.83;;
15295;SDS011;7749;49.964;7.890;2022-10-10T15:44:55;10.23;;;4.18;;
15295;SDS011;7749;49.964;7.890;2022-10-10T15:47:23;8.02;;;3.85;;
15295;SDS011;7749;49.964;7.890;2022-10-10T15:49:50;10.20;;;4.40;;
15295;SDS011;7749;49.964;7.890;2022-10-10T15:52:18;7.18;;;4.03;;
15295;SDS011;7749;49.964;7.890;2022-10-10T15:54:49;11.52;;;4.97;;
15295;SDS011;7749;49.964;7.890;2022-10-10T15:57:17;7.25;;;4.30;;
15295;SDS011;7749;49.964;7.890;2022-10-10T15:59:45;9.25;;;5.38;;
15295;SDS011;7749;49.964;7.890;2022-10-10T16:02:13;10.63;;;4.32;;
15295;SDS011;7749;49.964;7.890;2022-10-10T16:04:44;11.25;;;4.20;;
15295;SDS011;7749;49.964;7.890;2022-10-10T16:07:12;7.78;;;4.03;;
15295;SDS011;7749;49.964;7.890;2022-10-10T16:09:56;10.77;;;4.15;;
15295;SDS011;7749;49.964;7.890;2022-10-10T16:12:24;12.73;;;4.03;;
15295;SDS011;7749;49.964;7.890;2022-10-10T16:14:52;8.52;;;4.50;;
15295;SDS011;7749;49.964;7.890;2022-10-10T16:17:20;8.05;;;4.25;;
15295;SDS011;7749;49.964;7.890;2022-10-10T16:19:50;9.15;;;4.30;;
15295;SDS011;7749;49.964;7.890;2022-10-10T16:22:17;9.73;;;5.28;;
15295;SDS011;7749;49.964;7.890;2022-10-10T16:24:45;11.85;;;6.07;;
15295;SDS011;7749;49.964;7.890;2022-10-10T16:27:30;9.25;;;4.90;;
15295;SDS011;7749;49.964;7.890;2022-10-10T16:29:58;9.63;;;5.03;;
15295;SDS011;7749;49.964;7.890;2022-10-10T16:32:25;12.60;;;5.30;;
15295;SDS011;7749;49.964;7.890;2022-10-10T16:34:54;8.70;;;4.93;;
15295;SDS011;7749;49.964;7.890;2022-10-10T16:37:22;17.98;;;9.48;;
15295;SDS011;7749;49.964;7.890;2022-10-10T16:39:49;13.90;;;9.30;;
15295;SDS011;7749;49.964;7.890;2022-10-10T16:42:17;16.85;;;7.57;;
15295;SDS011;7749;49.964;7.890;2022-10-10T16:44:45;10.18;;;4.65;;
15295;SDS011;7749;49.964;7.890;2022-10-10T16:47:12;9.13;;;5.38;;
15295;SDS011;7749;49.964;7.890;2022-10-10T16:49:40;10.63;;;5.15;;
15295;SDS011;7749;49.964;7.890;2022-10-10T16:52:09;9.80;;;5.05;;
15295;SDS011;7749;49.964;7.890;2022-10-10T16:54:37;14.50;;;4.50;;
15295;SDS011;7749;49.964;7.890;2022-10-10T16:57:04;11.82;;;4.22;;
15295;SDS011;7749;49.964;7.890;2022-10-10T16:59:32;9.07;;;3.70;;
15295;SDS011;7749;49.964;7.890;2022-10-10T17:02:00;14.23;;;4.32;;
15295;SDS011;7749;49.964;7.890;2022-10-10T17:04:28;9.80;;;4.28;;
15295;SDS011;7749;49.964;7.890;2022-10-10T17:06:55;8.82;;;3.58;;
15295;SDS011;7749;49.964;7.890;2022-10-10T17:09:23;10.50;;;4.20;;
15295;SDS011;7749;49.964;7.890;2022-10-10T17:11:50;7.22;;;3.88;;
15295;SDS011;7749;49.964;7.890;2022-10-10T17:14:18;13.77;;;4.70;;
15295;SDS011;7749;49.964;7.890;2022-10-10T17:16:46;10.80;;;4.57;;
15295;SDS011;7749;49.964;7.890;2022-10-10T17:19:36;8.53;;;4.63;;
15295;SDS011;7749;49.964;7.890;2022-10-10T17:22:08;11.43;;;5.47;;
15295;SDS011;7749;49.964;7.890;2022-10-10T17:24:45;12.03;;;4.97;;
15295;SDS011;7749;49.964;7.890;2022-10-10T17:27:16;12.47;;;5.10;;
15295;SDS011;7749;49.964;7.890;2022-10-10T17:29:44;9.80;;;4.37;;
15295;SDS011;7749;49.964;7.890;2022-10-10T17:32:12;12.00;;;4.82;;
15295;SDS011;7749;49.964;7.890;2022-10-10T17:34:53;9.23;;;4.43;;